Date,TemperatureHighF,TemperatureAvgF,TemperatureLowF,DewpointHighF,DewpointAvgF,DewpointLowF,HumidityHigh,HumidityAvg,HumidityLow,PressureMaxIn,PressureMinIn,WindSpeedMaxMPH,WindSpeedAvgMPH,GustSpeedMaxMPH,PrecipitationSumIn
2013-8-1,77.1,68.7,60.8,66.8,61.9,56.9,89,79,65,30.04,29.87,12,4,12,0.01
2013-8-2,83.4,72.6,62.2,67.2,59.8,54.7,93,66,41,29.87,29.76,13,4,13,0.22
2013-8-3,80.6,70.7,62.0,61.8,58.1,53.6,85,66,45,29.85,29.74,15,4,15,0.00
2013-8-4,83.0,69.7,58.8,60.6,54.3,50.3,79,60,38,29.86,29.75,12,4,12,0.00
2013-8-5,82.7,65.6,55.7,52.0,46.0,36.1,80,53,22,30.04,29.86,17,6,17,0.00
2013-8-6,72.5,62.2,50.5,58.2,51.3,42.0,81,68,55,30.15,30.04,8,3,8,0.00
2013-8-7,73.6,63.3,54.3,63.0,55.7,49.6,85,76,66,30.18,30.11,9,3,9,0.00
2013-8-8,82.6,71.2,61.5,68.5,62.3,52.3,87,74,61,30.12,29.99,9,4,9,0.00
2013-8-9,72.5,68.4,62.7,70.4,65.9,61.2,96,92,84,30.02,29.71,16,4,16,0.57
2013-8-10,85.6,73.3,63.1,67.7,58.4,47.5,95,64,29,30.00,29.76,16,5,16,0.01
2013-8-11,81.6,67.3,53.9,56.7,51.7,48.6,84,60,35,30.06,29.98,13,3,13,0.00
2013-8-12,83.4,68.9,57.0,58.4,54.4,50.1,85,63,37,30.01,29.90,10,3,10,0.00
2013-8-13,70.5,64.8,60.8,64.6,60.1,56.3,93,85,74,29.91,29.67,7,2,7,0.00
2013-8-14,77.1,66.0,59.2,60.1,52.9,47.9,93,65,40,29.93,29.64,20,7,20,0.01
2013-8-15,78.5,65.2,52.5,52.0,49.5,46.4,81,59,36,30.09,29.93,14,4,14,0.00
2013-8-16,80.5,66.1,53.6,56.4,52.1,48.0,82,63,35,30.17,30.08,14,3,14,0.00
2013-8-17,77.6,64.7,54.8,61.5,55.7,50.4,87,73,54,30.28,30.17,7,2,7,0.00
2013-8-18,76.2,65.6,55.8,62.8,57.3,52.1,89,75,54,30.27,30.06,8,2,8,0.00
2013-8-19,85.3,71.1,59.7,62.9,58.4,55.1,88,66,42,30.06,29.92,12,4,12,0.00
2013-8-20,87.1,71.6,61.5,67.0,60.8,56.0,84,69,48,30.07,29.95,9,3,9,0.00
2013-8-21,80.7,71.7,62.2,66.4,61.9,57.2,86,72,59,30.12,29.99,9,3,9,0.00
2013-8-22,89.7,76.1,65.5,68.5,63.6,59.3,85,67,42,30.01,29.78,10,4,10,0.00
2013-8-23,84.7,70.9,62.2,66.2,57.8,47.2,85,64,43,30.12,29.79,12,3,12,0.00
2013-8-24,76.5,63.7,52.4,55.6,49.8,43.5,80,61,43,30.31,30.12,9,2,9,0.00
2013-8-25,75.2,64.4,52.7,58.2,51.6,46.1,83,64,40,30.35,30.16,10,3,10,0.00
2013-8-26,82.4,71.1,62.8,64.8,60.0,52.5,81,68,54,30.16,29.85,14,4,14,0.00
2013-8-27,80.2,71.5,64.2,66.5,63.1,59.6,85,75,59,29.90,29.82,8,1,8,0.00
2013-8-28,75.0,65.1,60.7,66.3,60.7,57.4,92,86,71,30.00,29.85,7,2,7,0.00
2013-8-29,64.9,62.9,60.6,61.2,58.6,55.8,93,86,79,30.09,29.96,5,2,5,0.01
2013-8-30,86.4,69.7,60.2,65.9,60.9,56.1,88,75,49,30.02,29.79,8,3,8,0.00
2013-8-31,78.4,71.4,67.3,71.4,66.4,62.5,90,84,75,29.82,29.76,10,3,10,0.00